Time;durP1;ratioP1;P1;durP2;ratioP2;P2;SDS_P1;SDS_P2;PMS_P1;PMS_P2;Temp;Humidity;BMP_temperature;BMP_pressure;BME280_temperature;BME280_humidity;BME280_pressure;Samples;Min_cycle;Max_cycle;Signal;HPM_P1;HPM_P2
2021/10/26 00:02:03;;;;;;;4.90;2.40;;;;;;;;;;5123244;27;20027;-46
2021/10/26 00:04:29;;;;;;;3.30;2.30;;;;;;;;;;5123045;27;20022;-45
2021/10/26 00:06:55;;;;;;;3.15;2.35;;;;;;;;;;5103290;27;20451;-45
2021/10/26 00:09:22;;;;;;;3.10;2.47;;;;;;;;;;5119668;27;20046;-45
2021/10/26 00:11:48;;;;;;;2.92;1.90;;;;;;;;;;5121497;27;20051;-45
2021/10/26 00:14:14;;;;;;;3.38;2.15;;;;;;;;;;5122424;27;20145;-46
2021/10/26 00:16:40;;;;;;;3.30;2.00;;;;;;;;;;5119436;27;20102;-45
2021/10/26 00:19:07;;;;;;;3.03;1.73;;;;;;;;;;5122358;27;20042;-44
2021/10/26 00:21:34;;;;;;;2.60;1.80;;;;;;;;;;5121592;27;20023;-46
2021/10/26 00:24:00;;;;;;;2.55;1.77;;;;;;;;;;5120683;27;20475;-45
2021/10/26 00:26:26;;;;;;;3.33;2.00;;;;;;;;;;5121627;27;20015;-45
2021/10/26 00:28:53;;;;;;;3.55;2.20;;;;;;;;;;5120082;27;20023;-45
2021/10/26 00:31:20;;;;;;;3.55;2.58;;;;;;;;;;5121952;27;20090;-45
2021/10/26 00:33:46;;;;;;;3.80;2.15;;;;;;;;;;5122810;27;20011;-45
2021/10/26 00:36:12;;;;;;;2.80;2.20;;;;;;;;;;5120967;27;20054;-46
2021/10/26 00:38:38;;;;;;;2.78;1.80;;;;;;;;;;5118681;27;20020;-45
2021/10/26 00:41:05;;;;;;;4.32;2.00;;;;;;;;;;5122390;27;20712;-45
2021/10/26 00:43:31;;;;;;;2.75;1.83;;;;;;;;;;5121263;27;20367;-45
2021/10/26 00:45:58;;;;;;;3.55;1.75;;;;;;;;;;5120624;27;20047;-45
2021/10/26 00:48:24;;;;;;;4.32;2.30;;;;;;;;;;5121747;27;20102;-47
2021/10/26 00:50:50;;;;;;;3.45;2.03;;;;;;;;;;5119308;27;20034;-45
2021/10/26 00:53:17;;;;;;;2.85;1.55;;;;;;;;;;5120980;27;20030;-45
2021/10/26 00:55:43;;;;;;;2.25;1.88;;;;;;;;;;5122520;27;20068;-45
2021/10/26 00:58:09;;;;;;;3.92;1.95;;;;;;;;;;5121022;27;20047;-45
2021/10/26 01:00:35;;;;;;;4.30;2.30;;;;;;;;;;5114982;27;20445;-45
2021/10/26 01:03:01;;;;;;;3.05;1.95;;;;;;;;;;5126947;27;20045;-45
2021/10/26 01:05:27;;;;;;;3.17;2.10;;;;;;;;;;5119494;27;20055;-45
2021/10/26 01:07:53;;;;;;;2.78;2.03;;;;;;;;;;5113123;28;20110;-47
2021/10/26 01:10:19;;;;;;;3.50;2.28;;;;;;;;;;5112096;27;20341;-47
2021/10/26 01:12:46;;;;;;;3.90;2.22;;;;;;;;;;5117478;27;20011;-45
2021/10/26 01:15:15;;;;;;;3.78;2.70;;;;;;;;;;5133085;27;20031;-45
2021/10/26 01:17:41;;;;;;;3.03;2.17;;;;;;;;;;5126290;27;20023;-46
2021/10/26 01:20:08;;;;;;;3.50;2.30;;;;;;;;;;5120317;27;20020;-45
2021/10/26 01:22:39;;;;;;;3.30;2.08;;;;;;;;;;5112681;27;20484;-45
2021/10/26 01:25:09;;;;;;;2.28;1.58;;;;;;;;;;5133293;27;20060;-46
2021/10/26 01:27:38;;;;;;;4.30;2.15;;;;;;;;;;5132376;27;20411;-46
2021/10/26 01:30:04;;;;;;;5.57;2.42;;;;;;;;;;5133265;27;20033;-45
2021/10/26 01:32:30;;;;;;;2.45;1.70;;;;;;;;;;5132074;27;20023;-46
2021/10/26 01:34:56;;;;;;;2.42;1.80;;;;;;;;;;5130216;27;20047;-45
2021/10/26 01:37:24;;;;;;;3.58;2.20;;;;;;;;;;5111714;28;20038;-45
2021/10/26 01:39:50;;;;;;;2.88;2.08;;;;;;;;;;5094452;28;20337;-46
2021/10/26 01:42:16;;;;;;;3.03;1.75;;;;;;;;;;5111746;28;20031;-45
2021/10/26 01:44:43;;;;;;;4.20;1.80;;;;;;;;;;5112542;28;20092;-46
2021/10/26 01:47:09;;;;;;;4.18;1.92;;;;;;;;;;5112101;28;20464;-46
2021/10/26 01:49:35;;;;;;;3.40;2.72;;;;;;;;;;5094320;28;20064;-45
2021/10/26 01:52:01;;;;;;;3.40;1.90;;;;;;;;;;5119059;28;20032;-46
2021/10/26 01:54:29;;;;;;;4.18;2.25;;;;;;;;;;5118432;28;20014;-45
2021/10/26 01:56:55;;;;;;;4.25;2.63;;;;;;;;;;5100550;28;20023;-46
2021/10/26 01:59:21;;;;;;;3.05;1.88;;;;;;;;;;5117688;28;20412;-46
2021/10/26 02:01:48;;;;;;;2.47;1.90;;;;;;;;;;5119075;28;20063;-45
2021/10/26 02:04:14;;;;;;;3.58;2.10;;;;;;;;;;5118836;28;20024;-47
2021/10/26 02:06:40;;;;;;;3.40;2.25;;;;;;;;;;5118621;28;20482;-45
2021/10/26 02:09:06;;;;;;;4.15;2.30;;;;;;;;;;5119236;27;20026;-45
2021/10/26 02:11:32;;;;;;;4.00;2.38;;;;;;;;;;5117969;27;20475;-45
2021/10/26 02:13:58;;;;;;;5.07;2.13;;;;;;;;;;5118763;28;20031;-46
2021/10/26 02:16:24;;;;;;;4.20;2.63;;;;;;;;;;5117619;27;20452;-45
2021/10/26 02:18:51;;;;;;;4.53;2.17;;;;;;;;;;5120510;27;20156;-45
2021/10/26 02:21:17;;;;;;;2.47;2.22;;;;;;;;;;5133339;27;20019;-47
2021/10/26 02:23:43;;;;;;;3.92;2.35;;;;;;;;;;5124895;27;20043;-45
2021/10/26 02:26:10;;;;;;;4.43;2.65;;;;;;;;;;5120274;27;20116;-46
2021/10/26 02:28:36;;;;;;;3.00;1.88;;;;;;;;;;5119149;27;20610;-49
2021/10/26 02:31:02;;;;;;;4.15;2.25;;;;;;;;;;5130011;27;20007;-48
2021/10/26 02:33:28;;;;;;;3.55;2.75;;;;;;;;;;5117847;27;20020;-45
2021/10/26 02:35:54;;;;;;;3.40;2.10;;;;;;;;;;5118974;27;20050;-45
2021/10/26 02:38:20;;;;;;;2.63;2.10;;;;;;;;;;5134240;27;20023;-46
2021/10/26 02:40:46;;;;;;;3.92;2.53;;;;;;;;;;5139400;27;20016;-45
2021/10/26 02:43:12;;;;;;;3.30;2.13;;;;;;;;;;5138946;27;20080;-45
2021/10/26 02:45:39;;;;;;;3.95;2.10;;;;;;;;;;5137927;27;20050;-46
2021/10/26 02:48:05;;;;;;;3.28;2.40;;;;;;;;;;5139057;27;20337;-46
2021/10/26 02:50:31;;;;;;;3.78;2.10;;;;;;;;;;5138538;27;20168;-46
2021/10/26 02:52:57;;;;;;;4.47;2.33;;;;;;;;;;5129068;27;20015;-45
2021/10/26 02:55:23;;;;;;;3.75;2.40;;;;;;;;;;5138243;27;20494;-47
2021/10/26 02:57:49;;;;;;;3.08;1.90;;;;;;;;;;5123314;27;20023;-45
2021/10/26 03:00:18;;;;;;;3.17;2.05;;;;;;;;;;5118009;27;20461;-47
2021/10/26 03:02:44;;;;;;;5.80;2.80;;;;;;;;;;5114908;28;20020;-46
2021/10/26 03:05:10;;;;;;;3.38;2.22;;;;;;;;;;5127628;27;20144;-45
2021/10/26 03:07:43;;;;;;;2.50;1.90;;;;;;;;;;5134447;27;20027;-45
2021/10/26 03:10:10;;;;;;;3.13;2.03;;;;;;;;;;5133378;27;20359;-46
2021/10/26 03:12:36;;;;;;;2.97;2.03;;;;;;;;;;5117952;27;20161;-45
2021/10/26 03:15:07;;;;;;;3.05;2.15;;;;;;;;;;5124782;27;20039;-47
2021/10/26 03:17:33;;;;;;;3.30;2.00;;;;;;;;;;5134391;27;20031;-45
2021/10/26 03:20:00;;;;;;;3.50;2.15;;;;;;;;;;5122470;27;20015;-45
2021/10/26 03:22:26;;;;;;;3.28;2.08;;;;;;;;;;5134506;27;20493;-45
2021/10/26 03:24:54;;;;;;;4.10;2.55;;;;;;;;;;5135393;27;20048;-45
2021/10/26 03:27:20;;;;;;;3.33;2.10;;;;;;;;;;5134737;27;20015;-45
2021/10/26 03:29:46;;;;;;;2.85;2.10;;;;;;;;;;5135130;27;20026;-45
2021/10/26 03:32:13;;;;;;;3.25;2.17;;;;;;;;;;5117889;27;20020;-45
2021/10/26 03:34:39;;;;;;;3.55;2.33;;;;;;;;;;5113568;28;20082;-45
2021/10/26 03:37:06;;;;;;;3.15;1.92;;;;;;;;;;5114793;28;20036;-47
2021/10/26 03:39:32;;;;;;;3.92;2.75;;;;;;;;;;5113827;28;20012;-45
2021/10/26 03:41:58;;;;;;;4.38;2.03;;;;;;;;;;5114948;28;20045;-46
2021/10/26 03:44:24;;;;;;;2.78;1.92;;;;;;;;;;5113552;28;20073;-46
2021/10/26 03:46:51;;;;;;;3.35;1.90;;;;;;;;;;5122950;27;20098;-45
2021/10/26 03:49:16;;;;;;;4.05;2.38;;;;;;;;;;5134393;27;20020;-49
2021/10/26 03:51:42;;;;;;;2.92;2.20;;;;;;;;;;5134689;27;20023;-45
2021/10/26 03:54:09;;;;;;;3.63;2.05;;;;;;;;;;5117464;27;20038;-45
2021/10/26 03:56:35;;;;;;;3.13;2.10;;;;;;;;;;5113233;27;20409;-45
2021/10/26 03:59:04;;;;;;;2.53;2.20;;;;;;;;;;5114319;28;20110;-46
2021/10/26 04:01:30;;;;;;;4.25;3.15;;;;;;;;;;5130048;27;20102;-45
2021/10/26 04:03:57;;;;;;;3.15;2.10;;;;;;;;;;5134345;27;20100;-46
2021/10/26 04:06:25;;;;;;;4.13;2.45;;;;;;;;;;5133229;27;20023;-46
2021/10/26 04:08:59;;;;;;;3.53;2.15;;;;;;;;;;5134506;27;20102;-46
2021/10/26 04:11:27;;;;;;;4.50;2.72;;;;;;;;;;5133478;27;20011;-45
2021/10/26 04:13:54;;;;;;;3.38;2.20;;;;;;;;;;5134474;27;20019;-47
2021/10/26 04:16:20;;;;;;;3.80;2.25;;;;;;;;;;5110623;28;20043;-48
2021/10/26 04:18:47;;;;;;;2.30;2.05;;;;;;;;;;5113824;27;20019;-45
2021/10/26 04:21:14;;;;;;;3.00;2.35;;;;;;;;;;5116486;27;20045;-45
2021/10/26 04:23:40;;;;;;;5.07;2.42;;;;;;;;;;5127646;27;20027;-47
2021/10/26 04:26:07;;;;;;;4.43;2.67;;;;;;;;;;5131737;27;20083;-45
2021/10/26 04:28:33;;;;;;;3.33;2.28;;;;;;;;;;5112784;28;20478;-46
2021/10/26 04:31:02;;;;;;;2.55;1.90;;;;;;;;;;5114882;27;20028;-45
2021/10/26 04:33:28;;;;;;;10.30;2.13;;;;;;;;;;5112842;28;20027;-45
2021/10/26 04:35:55;;;;;;;4.78;2.78;;;;;;;;;;5114178;27;20054;-47
2021/10/26 04:38:21;;;;;;;3.33;2.70;;;;;;;;;;5133483;27;20020;-47
2021/10/26 04:40:48;;;;;;;3.53;1.98;;;;;;;;;;5133153;27;20349;-49
2021/10/26 04:43:17;;;;;;;4.35;2.00;;;;;;;;;;5133953;27;20014;-47
2021/10/26 04:45:43;;;;;;;3.10;2.15;;;;;;;;;;5116067;27;20030;-45
2021/10/26 04:48:13;;;;;;;3.78;2.53;;;;;;;;;;5132551;27;20019;-47
2021/10/26 04:50:39;;;;;;;2.90;2.17;;;;;;;;;;5132694;27;20026;-46
2021/10/26 04:53:05;;;;;;;2.90;2.00;;;;;;;;;;5115727;27;20027;-45
2021/10/26 04:55:31;;;;;;;2.53;1.95;;;;;;;;;;5132053;27;20028;-47
2021/10/26 04:57:57;;;;;;;2.83;2.30;;;;;;;;;;5133198;27;20557;-45
2021/10/26 05:00:24;;;;;;;3.42;2.00;;;;;;;;;;5132588;27;20019;-45
2021/10/26 05:02:50;;;;;;;5.35;2.45;;;;;;;;;;5115241;27;20019;-45
2021/10/26 05:05:16;;;;;;;3.33;2.17;;;;;;;;;;5112240;28;20364;-45
2021/10/26 05:07:42;;;;;;;3.13;1.80;;;;;;;;;;5112165;27;20085;-46
2021/10/26 05:10:08;;;;;;;3.05;2.20;;;;;;;;;;5112475;28;20019;-46
2021/10/26 05:12:34;;;;;;;4.32;2.15;;;;;;;;;;5112961;27;20025;-47
2021/10/26 05:15:00;;;;;;;4.88;2.72;;;;;;;;;;5112357;28;20027;-47
2021/10/26 05:17:27;;;;;;;3.70;2.20;;;;;;;;;;5094636;28;20403;-49
2021/10/26 05:19:54;;;;;;;4.88;2.35;;;;;;;;;;5115862;27;20409;-46
2021/10/26 05:22:23;;;;;;;4.32;2.20;;;;;;;;;;5131109;27;20336;-46
2021/10/26 05:24:49;;;;;;;5.53;2.25;;;;;;;;;;5111786;28;20042;-46
2021/10/26 05:27:17;;;;;;;3.00;2.05;;;;;;;;;;5112511;28;20027;-45
2021/10/26 05:29:43;;;;;;;4.88;2.42;;;;;;;;;;5111722;28;20069;-45
2021/10/26 05:32:09;;;;;;;3.72;2.17;;;;;;;;;;5128854;27;20016;-45
2021/10/26 05:34:37;;;;;;;4.10;2.00;;;;;;;;;;5111626;28;20026;-45
2021/10/26 05:37:03;;;;;;;3.78;1.90;;;;;;;;;;5120612;27;20375;-46
2021/10/26 05:39:29;;;;;;;8.63;2.40;;;;;;;;;;5131531;27;20019;-46
2021/10/26 05:41:56;;;;;;;7.40;2.10;;;;;;;;;;5130332;27;20015;-46
2021/10/26 05:44:24;;;;;;;8.02;2.30;;;;;;;;;;5132029;27;20165;-47
2021/10/26 05:46:50;;;;;;;9.10;2.47;;;;;;;;;;5132704;27;20050;-50
2021/10/26 05:49:16;;;;;;;4.68;2.58;;;;;;;;;;5132991;28;20015;-47
2021/10/26 05:51:42;;;;;;;7.22;2.15;;;;;;;;;;5122008;28;20095;-46
2021/10/26 05:54:09;;;;;;;5.82;2.17;;;;;;;;;;5112192;28;20491;-46
2021/10/26 05:56:35;;;;;;;6.13;2.15;;;;;;;;;;5111452;28;20036;-48
2021/10/26 05:59:01;;;;;;;11.07;3.08;;;;;;;;;;5112316;28;20026;-46
2021/10/26 06:01:27;;;;;;;11.57;3.80;;;;;;;;;;5112382;28;20024;-47
2021/10/26 06:03:53;;;;;;;7.30;2.67;;;;;;;;;;5130299;28;20054;-45
2021/10/26 06:06:19;;;;;;;8.20;2.83;;;;;;;;;;5125130;28;20051;-45
2021/10/26 06:08:47;;;;;;;8.20;2.60;;;;;;;;;;5110505;28;20051;-45
2021/10/26 06:11:16;;;;;;;6.88;2.50;;;;;;;;;;5122007;28;20016;-46
2021/10/26 06:13:49;;;;;;;9.85;3.03;;;;;;;;;;5121159;28;20054;-49
2021/10/26 06:16:15;;;;;;;8.57;3.17;;;;;;;;;;5117761;28;20031;-46
2021/10/26 06:18:41;;;;;;;9.02;2.75;;;;;;;;;;5111175;28;20047;-48
2021/10/26 06:21:08;;;;;;;13.57;2.60;;;;;;;;;;5122239;28;20024;-46
2021/10/26 06:23:34;;;;;;;7.93;2.78;;;;;;;;;;5131629;28;20023;-48
2021/10/26 06:26:00;;;;;;;7.65;3.33;;;;;;;;;;5128838;28;20042;-50
2021/10/26 06:28:28;;;;;;;9.23;2.85;;;;;;;;;;5111336;28;20020;-48
2021/10/26 06:30:54;;;;;;;6.05;2.90;;;;;;;;;;5124049;28;20091;-48
2021/10/26 06:33:21;;;;;;;5.53;3.03;;;;;;;;;;5113853;28;20046;-45
2021/10/26 06:35:47;;;;;;;6.10;2.60;;;;;;;;;;5120620;28;20758;-46
2021/10/26 06:38:13;;;;;;;9.07;2.97;;;;;;;;;;5114657;28;20033;-48
2021/10/26 06:40:39;;;;;;;3.30;2.65;;;;;;;;;;5116217;27;20448;-47
2021/10/26 06:43:05;;;;;;;9.35;3.13;;;;;;;;;;5135540;27;20076;-47
2021/10/26 06:45:31;;;;;;;5.00;2.83;;;;;;;;;;5134995;27;20068;-47
2021/10/26 06:47:57;;;;;;;7.38;2.75;;;;;;;;;;5136115;27;20102;-49
2021/10/26 06:50:23;;;;;;;7.45;2.88;;;;;;;;;;5135827;27;20478;-46
2021/10/26 06:52:49;;;;;;;6.10;2.97;;;;;;;;;;5118521;27;20452;-47
2021/10/26 06:55:19;;;;;;;5.72;2.50;;;;;;;;;;5115333;27;20024;-48
2021/10/26 06:57:48;;;;;;;5.07;2.50;;;;;;;;;;5133398;27;20059;-46
2021/10/26 07:00:14;;;;;;;8.90;2.90;;;;;;;;;;5133918;27;20027;-46
2021/10/26 07:02:46;;;;;;;7.10;2.72;;;;;;;;;;5116174;27;20435;-46
2021/10/26 07:05:15;;;;;;;5.75;2.17;;;;;;;;;;5118296;27;20070;-47
2021/10/26 07:07:41;;;;;;;5.35;2.67;;;;;;;;;;5114644;27;20019;-46
2021/10/26 07:10:07;;;;;;;5.47;2.22;;;;;;;;;;5126996;27;20015;-48
2021/10/26 07:12:34;;;;;;;4.53;2.53;;;;;;;;;;5116850;27;20016;-49
2021/10/26 07:15:02;;;;;;;8.65;2.75;;;;;;;;;;5115104;28;20038;-45
2021/10/26 07:17:29;;;;;;;5.82;3.10;;;;;;;;;;5116123;27;20032;-46
2021/10/26 07:19:55;;;;;;;5.22;2.70;;;;;;;;;;5118801;27;20102;-46
2021/10/26 07:22:22;;;;;;;7.22;2.63;;;;;;;;;;5119275;27;20376;-49
2021/10/26 07:24:56;;;;;;;3.08;2.50;;;;;;;;;;5113916;27;20336;-45
2021/10/26 07:27:22;;;;;;;8.02;3.00;;;;;;;;;;5114355;27;20019;-48
2021/10/26 07:29:48;;;;;;;3.90;2.45;;;;;;;;;;5114015;28;20035;-47
2021/10/26 07:32:14;;;;;;;6.68;2.70;;;;;;;;;;5124574;27;20024;-50
2021/10/26 07:34:41;;;;;;;7.30;2.42;;;;;;;;;;5113204;28;20027;-48
2021/10/26 07:37:07;;;;;;;4.70;2.63;;;;;;;;;;5124172;27;20084;-47
2021/10/26 07:39:44;;;;;;;3.88;2.72;;;;;;;;;;5133894;27;20472;-45
2021/10/26 07:42:10;;;;;;;4.40;2.55;;;;;;;;;;5119829;27;20015;-46
2021/10/26 07:44:37;;;;;;;4.88;2.20;;;;;;;;;;5113394;28;20011;-49
2021/10/26 07:47:03;;;;;;;6.35;3.30;;;;;;;;;;5115362;27;20058;-47
2021/10/26 07:49:31;;;;;;;4.07;2.60;;;;;;;;;;5113302;28;20011;-47
2021/10/26 07:51:58;;;;;;;5.60;2.20;;;;;;;;;;5115144;27;20059;-45
2021/10/26 07:54:24;;;;;;;7.65;3.15;;;;;;;;;;5128008;27;20027;-46
2021/10/26 07:56:50;;;;;;;4.78;2.92;;;;;;;;;;5133724;27;20027;-46
2021/10/26 07:59:16;;;;;;;7.22;2.53;;;;;;;;;;5131898;27;20076;-46
2021/10/26 08:01:44;;;;;;;4.10;2.72;;;;;;;;;;5113139;27;20027;-45
2021/10/26 08:04:11;;;;;;;4.70;2.60;;;;;;;;;;5096493;28;20020;-46
2021/10/26 08:06:39;;;;;;;6.45;2.58;;;;;;;;;;5113071;27;20031;-45
2021/10/26 08:09:05;;;;;;;4.47;2.72;;;;;;;;;;5114412;27;20023;-48
2021/10/26 08:11:34;;;;;;;4.32;3.10;;;;;;;;;;5120665;27;20023;-45
2021/10/26 08:14:00;;;;;;;4.78;2.40;;;;;;;;;;5134025;27;20023;-46
2021/10/26 08:16:26;;;;;;;6.00;2.60;;;;;;;;;;5132230;27;20019;-47
2021/10/26 08:18:53;;;;;;;4.93;2.72;;;;;;;;;;5122582;27;20039;-45
2021/10/26 08:21:19;;;;;;;5.03;2.45;;;;;;;;;;5121697;27;20051;-50
2021/10/26 08:23:46;;;;;;;6.65;2.67;;;;;;;;;;5112622;28;20517;-48
2021/10/26 08:26:20;;;;;;;3.42;2.53;;;;;;;;;;5113434;27;20461;-50
2021/10/26 08:28:49;;;;;;;4.90;2.88;;;;;;;;;;5114273;27;20024;-49
2021/10/26 08:31:22;;;;;;;5.22;2.20;;;;;;;;;;5119829;27;20782;-46
2021/10/26 08:34:08;;;;;;;3.05;2.13;;;;;;;;;;5130933;27;20636;-46
2021/10/26 08:36:35;;;;;;;5.38;2.20;;;;;;;;;;5124229;27;20071;-46
2021/10/26 08:39:02;;;;;;;4.25;2.72;;;;;;;;;;5130282;27;20027;-46
2021/10/26 08:41:29;;;;;;;4.32;2.47;;;;;;;;;;5125431;27;20023;-47
2021/10/26 08:43:56;;;;;;;5.15;2.90;;;;;;;;;;5133265;27;20448;-48
2021/10/26 08:46:23;;;;;;;3.42;2.25;;;;;;;;;;5124957;27;20462;-45
2021/10/26 08:48:52;;;;;;;5.45;2.70;;;;;;;;;;5124462;27;20551;-45
2021/10/26 08:51:22;;;;;;;8.45;2.90;;;;;;;;;;5119088;27;20414;-47
2021/10/26 08:53:48;;;;;;;2.70;2.30;;;;;;;;;;5129679;27;20014;-47
2021/10/26 08:56:15;;;;;;;5.93;3.22;;;;;;;;;;5123597;27;20402;-46
2021/10/26 08:58:43;;;;;;;6.85;2.92;;;;;;;;;;5132479;27;20022;-46
2021/10/26 09:01:09;;;;;;;4.35;2.42;;;;;;;;;;5131754;27;20031;-45
2021/10/26 09:03:37;;;;;;;3.67;2.45;;;;;;;;;;5129456;27;20092;-48
2021/10/26 09:06:06;;;;;;;5.75;3.55;;;;;;;;;;5118093;27;20128;-46
2021/10/26 09:08:33;;;;;;;6.13;3.30;;;;;;;;;;5132470;27;20019;-48
2021/10/26 09:11:19;;;;;;;4.53;2.95;;;;;;;;;;5123095;27;20019;-47
2021/10/26 09:19:16;;;;;;;4.53;2.38;;;;;;;;;;5113539;28;20031;-46
2021/10/26 09:21:43;;;;;;;3.67;2.53;;;;;;;;;;5116787;27;20027;-45
2021/10/26 09:24:11;;;;;;;4.47;3.20;;;;;;;;;;5124606;27;20467;-50
2021/10/26 09:26:45;;;;;;;2.90;2.40;;;;;;;;;;5128230;27;20026;-47
2021/10/26 09:29:12;;;;;;;4.05;2.83;;;;;;;;;;5112459;28;20027;-47
2021/10/26 09:31:40;;;;;;;4.10;2.30;;;;;;;;;;5104279;27;20117;-46
2021/10/26 09:34:07;;;;;;;4.00;2.90;;;;;;;;;;5120621;27;20077;-47
2021/10/26 09:36:34;;;;;;;6.65;2.67;;;;;;;;;;5120501;27;20479;-47
2021/10/26 09:39:03;;;;;;;5.32;3.42;;;;;;;;;;5132665;27;20030;-45
2021/10/26 09:41:31;;;;;;;4.82;2.70;;;;;;;;;;5117189;27;20024;-45
2021/10/26 09:44:13;;;;;;;5.13;3.10;;;;;;;;;;5111655;28;20016;-47
2021/10/26 09:46:40;;;;;;;3.95;2.78;;;;;;;;;;5111088;28;20124;-45
2021/10/26 09:49:19;;;;;;;5.57;2.85;;;;;;;;;;5129892;28;20011;-45
2021/10/26 09:51:46;;;;;;;5.05;2.83;;;;;;;;;;5123367;28;20007;-46
2021/10/26 09:54:16;;;;;;;6.60;3.50;;;;;;;;;;5112370;28;20019;-48
2021/10/26 09:57:01;;;;;;;5.60;2.85;;;;;;;;;;5111347;28;20024;-45
2021/10/26 09:59:27;;;;;;;4.85;2.75;;;;;;;;;;5113478;28;20491;-45
2021/10/26 10:01:54;;;;;;;5.43;2.92;;;;;;;;;;5111301;28;20034;-48
2021/10/26 10:04:34;;;;;;;6.95;2.63;;;;;;;;;;5113645;28;20026;-46
2021/10/26 10:07:01;;;;;;;4.10;2.70;;;;;;;;;;5129394;28;20088;-46
2021/10/26 10:09:27;;;;;;;3.90;2.30;;;;;;;;;;5132512;28;20353;-46
2021/10/26 10:12:04;;;;;;;4.78;2.97;;;;;;;;;;5133677;27;20015;-45
2021/10/26 10:14:33;;;;;;;4.53;2.67;;;;;;;;;;5136810;27;20061;-45
2021/10/26 10:17:01;;;;;;;5.65;2.65;;;;;;;;;;5122370;27;20073;-46
2021/10/26 10:19:28;;;;;;;4.15;2.47;;;;;;;;;;5116108;27;20460;-45
2021/10/26 10:21:54;;;;;;;4.50;2.45;;;;;;;;;;5127362;27;20654;-48
2021/10/26 10:24:22;;;;;;;4.00;2.55;;;;;;;;;;5115952;28;20019;-50
2021/10/26 10:26:51;;;;;;;3.70;2.78;;;;;;;;;;5114933;28;20031;-45
2021/10/26 10:29:20;;;;;;;5.50;2.15;;;;;;;;;;5115664;28;20019;-47
2021/10/26 10:31:47;;;;;;;2.80;2.03;;;;;;;;;;5135095;27;20039;-46
2021/10/26 10:34:13;;;;;;;3.92;2.13;;;;;;;;;;5135831;27;20106;-47
2021/10/26 10:36:40;;;;;;;5.18;2.40;;;;;;;;;;5121779;27;20515;-49
2021/10/26 10:39:08;;;;;;;4.20;2.30;;;;;;;;;;5116645;27;20012;-45
2021/10/26 10:41:52;;;;;;;3.28;2.20;;;;;;;;;;5133842;27;20054;-50
2021/10/26 10:44:21;;;;;;;3.05;2.45;;;;;;;;;;5115106;28;20038;-46
2021/10/26 10:46:51;;;;;;;4.30;2.40;;;;;;;;;;5114531;28;20106;-46
2021/10/26 10:49:24;;;;;;;3.83;2.38;;;;;;;;;;5125447;27;20031;-49
2021/10/26 10:51:57;;;;;;;5.13;2.90;;;;;;;;;;5116613;27;20011;-45
2021/10/26 10:54:39;;;;;;;3.20;2.00;;;;;;;;;;5115143;28;20039;-47
2021/10/26 10:57:25;;;;;;;3.90;1.98;;;;;;;;;;5115213;27;20024;-47
2021/10/26 10:59:52;;;;;;;3.70;2.35;;;;;;;;;;5114395;28;20402;-47
2021/10/26 11:02:41;;;;;;;2.92;2.13;;;;;;;;;;5117664;27;20679;-45
2021/10/26 11:05:07;;;;;;;3.15;1.92;;;;;;;;;;5134909;27;20023;-46
2021/10/26 11:07:45;;;;;;;3.03;1.92;;;;;;;;;;5135343;27;20070;-45
2021/10/26 11:10:15;;;;;;;3.25;1.98;;;;;;;;;;5134794;27;20493;-45
2021/10/26 11:12:43;;;;;;;3.67;2.10;;;;;;;;;;5126781;27;20019;-46
2021/10/26 11:15:14;;;;;;;2.88;2.22;;;;;;;;;;5134915;27;20047;-47
2021/10/26 11:17:41;;;;;;;3.45;1.92;;;;;;;;;;5133583;27;20039;-45
2021/10/26 11:20:08;;;;;;;2.90;2.05;;;;;;;;;;5119969;27;20232;-45
2021/10/26 11:22:46;;;;;;;3.17;2.05;;;;;;;;;;5129104;27;20015;-45
2021/10/26 11:25:23;;;;;;;2.78;2.17;;;;;;;;;;5132690;27;20094;-48
2021/10/26 11:27:49;;;;;;;2.80;1.73;;;;;;;;;;5120179;27;20467;-47
2021/10/26 11:30:27;;;;;;;2.83;2.15;;;;;;;;;;5135057;27;20023;-50
2021/10/26 11:33:12;;;;;;;2.90;1.70;;;;;;;;;;5124203;27;20046;-48
2021/10/26 11:35:55;;;;;;;3.88;2.35;;;;;;;;;;5121634;27;20043;-46
2021/10/26 11:38:24;;;;;;;2.45;1.70;;;;;;;;;;5122622;27;20051;-48
2021/10/26 11:40:50;;;;;;;1.83;1.33;;;;;;;;;;5120948;27;20015;-47
2021/10/26 11:43:17;;;;;;;5.00;1.83;;;;;;;;;;5122330;27;20019;-48
2021/10/26 11:46:00;;;;;;;2.38;1.33;;;;;;;;;;5118334;27;20045;-48
2021/10/26 11:48:41;;;;;;;3.63;1.75;;;;;;;;;;5123279;27;20019;-45
2021/10/26 11:51:26;;;;;;;2.58;1.65;;;;;;;;;;5120595;27;20019;-47
2021/10/26 11:53:53;;;;;;;3.83;1.60;;;;;;;;;;5120405;27;20460;-45
2021/10/26 11:56:19;;;;;;;2.55;1.48;;;;;;;;;;5123844;27;20524;-45
2021/10/26 11:59:15;;;;;;;3.92;1.80;;;;;;;;;;5121401;27;20024;-46
2021/10/26 12:01:54;;;;;;;2.30;1.83;;;;;;;;;;5105480;27;20488;-45
2021/10/26 12:04:30;;;;;;;3.65;1.70;;;;;;;;;;5121527;27;20464;-47
2021/10/26 12:06:58;;;;;;;2.00;1.50;;;;;;;;;;5121566;27;20472;-46
2021/10/26 12:09:26;;;;;;;1.75;1.30;;;;;;;;;;5121658;27;20023;-48
2021/10/26 12:11:53;;;;;;;2.65;1.73;;;;;;;;;;5120710;27;20027;-49
2021/10/26 12:14:21;;;;;;;2.08;1.60;;;;;;;;;;5120343;27;20023;-48
2021/10/26 12:17:02;;;;;;;3.83;1.60;;;;;;;;;;5131273;27;20515;-48
2021/10/26 12:19:29;;;;;;;2.25;1.30;;;;;;;;;;5131044;27;20057;-45
2021/10/26 12:21:56;;;;;;;4.82;1.65;;;;;;;;;;5114356;27;20504;-47
2021/10/26 12:24:26;;;;;;;3.65;1.95;;;;;;;;;;5113511;28;20509;-46
2021/10/26 12:27:06;;;;;;;5.05;1.60;;;;;;;;;;5115739;27;20470;-50
2021/10/26 12:29:37;;;;;;;6.32;2.05;;;;;;;;;;5112679;27;20360;-45
2021/10/26 12:32:04;;;;;;;3.58;1.80;;;;;;;;;;5118555;27;20043;-47
2021/10/26 12:34:37;;;;;;;5.47;1.95;;;;;;;;;;5114399;27;20071;-47
2021/10/26 12:37:36;;;;;;;4.97;2.10;;;;;;;;;;5113160;27;20047;-48
2021/10/26 12:40:22;;;;;;;3.45;1.55;;;;;;;;;;5073533;27;20031;-47
2021/10/26 12:43:04;;;;;;;9.32;2.67;;;;;;;;;;5126728;27;20353;-46
2021/10/26 12:45:41;;;;;;;7.28;2.33;;;;;;;;;;5133456;27;20019;-46
2021/10/26 12:48:11;;;;;;;4.40;1.83;;;;;;;;;;5120567;27;20031;-45
2021/10/26 12:50:59;;;;;;;3.50;1.75;;;;;;;;;;5123844;27;20024;-48
2021/10/26 12:53:43;;;;;;;5.82;2.08;;;;;;;;;;5129219;27;20031;-49
2021/10/26 12:56:17;;;;;;;3.33;1.40;;;;;;;;;;5132058;27;20076;-45
2021/10/26 12:58:44;;;;;;;3.95;1.98;;;;;;;;;;5132701;27;20019;-46
2021/10/26 13:01:20;;;;;;;4.15;1.45;;;;;;;;;;5123520;27;20008;-45
2021/10/26 13:03:56;;;;;;;6.25;1.70;;;;;;;;;;5124162;27;20047;-45
2021/10/26 13:06:29;;;;;;;6.50;1.55;;;;;;;;;;5118749;27;20088;-45
2021/10/26 13:08:57;;;;;;;3.55;1.60;;;;;;;;;;5130678;27;20054;-45
2021/10/26 13:11:24;;;;;;;2.13;1.35;;;;;;;;;;5130215;27;20067;-45
2021/10/26 13:14:17;;;;;;;6.72;1.65;;;;;;;;;;5131162;27;20439;-46
2021/10/26 13:16:43;;;;;;;2.90;1.77;;;;;;;;;;5108250;28;20039;-45
2021/10/26 13:19:13;;;;;;;4.25;2.00;;;;;;;;;;5112778;28;20047;-45
2021/10/26 13:21:42;;;;;;;5.13;1.52;;;;;;;;;;5121476;27;20471;-47
2021/10/26 13:24:08;;;;;;;4.32;2.15;;;;;;;;;;5112646;28;20023;-45
2021/10/26 13:26:35;;;;;;;3.00;1.50;;;;;;;;;;5112355;28;20529;-45
2021/10/26 13:29:02;;;;;;;4.20;1.23;;;;;;;;;;5112012;27;20031;-45
2021/10/26 13:31:30;;;;;;;2.92;1.50;;;;;;;;;;5116098;27;20039;-47
2021/10/26 13:33:56;;;;;;;3.00;1.70;;;;;;;;;;5130533;27;20027;-45
2021/10/26 13:36:25;;;;;;;2.95;1.70;;;;;;;;;;5128953;27;20055;-45
2021/10/26 13:38:51;;;;;;;2.88;1.65;;;;;;;;;;5113511;27;20012;-45
2021/10/26 13:41:18;;;;;;;4.10;1.50;;;;;;;;;;5125497;27;20031;-45
2021/10/26 13:43:48;;;;;;;3.30;1.63;;;;;;;;;;5128355;27;20027;-46
2021/10/26 13:46:21;;;;;;;3.78;1.27;;;;;;;;;;5131856;27;20023;-45
2021/10/26 13:48:48;;;;;;;2.65;1.50;;;;;;;;;;5130667;27;20360;-45
2021/10/26 13:51:16;;;;;;;3.47;1.88;;;;;;;;;;5128679;28;20043;-45
2021/10/26 13:53:44;;;;;;;2.28;1.42;;;;;;;;;;5112521;28;20015;-46
2021/10/26 13:56:10;;;;;;;3.67;1.48;;;;;;;;;;5112920;28;20031;-45
2021/10/26 13:58:36;;;;;;;2.55;1.70;;;;;;;;;;5122322;28;20015;-46
2021/10/26 14:01:15;;;;;;;2.25;1.20;;;;;;;;;;5131325;28;20130;-49
2021/10/26 14:03:46;;;;;;;1.90;1.63;;;;;;;;;;5099125;28;20360;-47
2021/10/26 14:06:13;;;;;;;1.88;1.10;;;;;;;;;;5113180;28;20031;-47
2021/10/26 14:08:46;;;;;;;2.85;1.33;;;;;;;;;;5111599;28;20157;-49
2021/10/26 14:11:13;;;;;;;1.63;1.17;;;;;;;;;;5112245;28;20372;-47
2021/10/26 14:13:45;;;;;;;2.97;1.77;;;;;;;;;;5113064;28;20016;-48
2021/10/26 14:16:12;;;;;;;2.28;1.45;;;;;;;;;;5116547;28;20060;-46
2021/10/26 14:18:47;;;;;;;7.05;1.65;;;;;;;;;;5131958;28;20034;-47
2021/10/26 14:21:14;;;;;;;2.60;1.20;;;;;;;;;;5117764;28;20148;-48
2021/10/26 14:23:43;;;;;;;3.10;1.38;;;;;;;;;;5111155;28;20588;-48
2021/10/26 14:26:10;;;;;;;4.30;1.23;;;;;;;;;;5116013;28;20023;-48
2021/10/26 14:28:36;;;;;;;4.22;1.45;;;;;;;;;;5125125;28;20023;-46
2021/10/26 14:31:04;;;;;;;5.72;1.30;;;;;;;;;;5131288;28;20026;-47
2021/10/26 14:33:36;;;;;;;4.72;1.90;;;;;;;;;;5130504;28;20363;-46
2021/10/26 14:36:08;;;;;;;4.40;1.40;;;;;;;;;;5128698;28;20051;-51
2021/10/26 14:54:53;;;;;;;5.05;1.30;;;;;;;;;;5111554;28;20035;-47
2021/10/26 14:57:19;;;;;;;6.82;1.27;;;;;;;;;;5125645;27;20091;-46
2021/10/26 14:59:45;;;;;;;7.97;1.58;;;;;;;;;;5121306;27;20516;-47
2021/10/26 15:02:11;;;;;;;5.85;1.20;;;;;;;;;;5121006;27;20436;-47
2021/10/26 15:04:38;;;;;;;4.47;1.55;;;;;;;;;;5115147;27;20479;-48
2021/10/26 15:07:04;;;;;;;3.13;1.48;;;;;;;;;;5114258;27;20147;-47
2021/10/26 15:12:18;;;;;;;3.35;1.33;;;;;;;;;;5134464;27;20110;-46
2021/10/26 15:14:47;;;;;;;3.55;1.27;;;;;;;;;;5134132;27;20015;-49
2021/10/26 15:17:13;;;;;;;6.57;1.38;;;;;;;;;;5134991;27;20080;-46